createdAt,value
2023-07-09T00:00:07.213Z,21.07
2023-07-09T00:01:07.157Z,21.03
2023-07-09T00:02:07.282Z,20.98
2023-07-09T00:03:07.215Z,20.95
2023-07-09T00:04:07.152Z,21.00
2023-07-09T00:05:07.229Z,20.97
2023-07-09T00:06:07.178Z,21.08
2023-07-09T00:07:07.096Z,21.10
2023-07-09T00:08:07.106Z,21.08
2023-07-09T00:09:07.081Z,21.05
2023-07-09T00:10:07.081Z,21.14
2023-07-09T00:11:07.055Z,21.20
2023-07-09T00:12:07.045Z,21.18
2023-07-09T00:13:07.059Z,21.10
2023-07-09T00:14:07.159Z,21.08
2023-07-09T00:15:07.164Z,21.11
2023-07-09T00:16:07.169Z,21.14
2023-07-09T00:17:07.000Z,21.08
2023-07-09T00:18:06.977Z,21.07
2023-07-09T00:19:06.975Z,20.98
2023-07-09T00:20:07.012Z,21.08
2023-07-09T00:21:06.973Z,21.05
2023-07-09T00:22:06.938Z,21.08
2023-07-09T00:23:06.924Z,20.98
2023-07-09T00:24:06.932Z,21.04
2023-07-09T00:25:06.920Z,21.07
2023-07-09T00:26:07.045Z,21.07
2023-07-09T00:27:06.874Z,21.05
2023-07-09T00:28:06.869Z,21.03
2023-07-09T00:29:06.883Z,20.95
2023-07-09T00:30:06.854Z,21.00
2023-07-09T00:31:06.882Z,20.97
2023-07-09T00:32:06.848Z,20.92
2023-07-09T00:33:06.877Z,20.93
2023-07-09T00:34:06.812Z,20.97
2023-07-09T00:35:06.813Z,21.01
2023-07-09T00:36:06.817Z,20.97
2023-07-09T00:37:06.778Z,20.97
2023-07-09T00:38:06.761Z,20.95
2023-07-09T00:39:06.764Z,20.97
2023-07-09T00:40:06.745Z,20.90
2023-07-09T00:41:06.865Z,21.00
2023-07-09T00:42:06.724Z,20.95
2023-07-09T00:43:06.723Z,20.88
2023-07-09T00:44:06.710Z,20.88
2023-07-09T00:45:06.694Z,20.90
2023-07-09T00:46:06.787Z,20.83
2023-07-09T00:47:06.701Z,20.67
2023-07-09T00:48:06.750Z,20.68
2023-07-09T00:49:06.721Z,20.64
2023-07-09T00:50:06.641Z,20.64
2023-07-09T00:51:06.640Z,20.63
2023-07-09T00:52:06.637Z,20.64
2023-07-09T00:53:06.607Z,20.70
2023-07-09T00:54:06.603Z,20.74
2023-07-09T00:55:08.986Z,20.74
2023-07-09T00:56:06.632Z,20.60
2023-07-09T00:57:06.573Z,20.56
2023-07-09T00:58:06.557Z,20.56
2023-07-09T00:59:06.549Z,20.58
2023-07-09T01:00:06.536Z,20.56
2023-07-09T01:01:06.558Z,20.58
2023-07-09T01:02:06.530Z,20.41
2023-07-09T01:03:06.526Z,20.44
2023-07-09T01:04:06.493Z,20.50
2023-07-09T01:05:06.513Z,20.37
2023-07-09T01:06:06.815Z,20.44
2023-07-09T01:07:06.477Z,20.30
2023-07-09T01:08:06.451Z,20.17
2023-07-09T01:09:06.442Z,20.05
2023-07-09T01:10:06.444Z,19.99
2023-07-09T01:11:06.407Z,19.87
2023-07-09T01:12:06.428Z,19.90
2023-07-09T01:13:06.388Z,19.86
2023-07-09T01:14:06.472Z,19.90
2023-07-09T01:15:06.373Z,19.79
2023-07-09T01:16:06.609Z,19.70
2023-07-09T01:17:06.386Z,19.64
2023-07-09T01:18:06.354Z,19.67
2023-07-09T01:19:06.355Z,19.53
2023-07-09T01:20:06.316Z,19.62
2023-07-09T01:21:06.303Z,19.52
2023-07-09T01:22:06.362Z,19.56
2023-07-09T01:23:06.327Z,19.54
2023-07-09T01:24:06.281Z,19.50
2023-07-09T01:25:06.261Z,19.39
2023-07-09T01:26:06.574Z,19.47
2023-07-09T01:27:06.232Z,19.57
2023-07-09T01:28:06.246Z,19.63
2023-07-09T01:29:06.221Z,19.63
2023-07-09T01:30:06.201Z,19.63
2023-07-09T01:31:06.231Z,19.70
2023-07-09T01:32:06.177Z,19.77
2023-07-09T01:33:06.232Z,19.75
2023-07-09T01:34:06.183Z,19.70
2023-07-09T01:35:06.235Z,19.75
2023-07-09T01:36:06.327Z,19.68
2023-07-09T01:37:06.125Z,19.62
2023-07-09T01:38:06.113Z,19.62
2023-07-09T01:39:06.138Z,19.60
2023-07-09T01:40:10.917Z,19.63
2023-07-09T01:41:07.085Z,19.68
2023-07-09T01:42:06.073Z,19.75
2023-07-09T01:43:06.074Z,19.77
2023-07-09T01:44:06.139Z,19.77
2023-07-09T01:45:06.046Z,19.74
2023-07-09T01:46:06.270Z,19.74
2023-07-09T01:47:06.099Z,19.86
2023-07-09T01:48:06.042Z,19.84
2023-07-09T01:49:06.019Z,19.81
2023-07-09T01:50:05.985Z,19.87
2023-07-09T01:51:06.027Z,19.72
2023-07-09T01:52:05.961Z,19.78
2023-07-09T01:53:05.952Z,19.67
2023-07-09T01:54:05.958Z,19.71
2023-07-09T01:55:05.936Z,19.72
2023-07-09T01:56:06.301Z,19.67
2023-07-09T01:57:05.912Z,19.62
2023-07-09T01:58:05.904Z,19.60
2023-07-09T01:59:05.955Z,19.47
2023-07-09T02:00:05.881Z,19.53
2023-07-09T02:01:05.903Z,19.53
2023-07-09T02:02:05.848Z,19.52
2023-07-09T02:03:05.959Z,19.57
2023-07-09T02:04:05.896Z,19.57
2023-07-09T02:05:05.841Z,19.60
2023-07-09T02:06:05.919Z,19.63
2023-07-09T02:07:05.821Z,19.68
2023-07-09T02:08:05.788Z,19.63
2023-07-09T02:09:05.777Z,19.64
2023-07-09T02:10:05.782Z,19.64
2023-07-09T02:11:05.775Z,19.64
2023-07-09T02:12:05.749Z,19.60
2023-07-09T02:13:05.735Z,19.47
2023-07-09T02:14:05.745Z,19.37
2023-07-09T02:15:05.738Z,19.27
2023-07-09T02:16:05.993Z,19.17
2023-07-09T02:17:05.721Z,19.07
2023-07-09T02:18:05.786Z,19.04
2023-07-09T02:19:05.678Z,19.01
2023-07-09T02:20:05.724Z,19.09
2023-07-09T02:21:05.661Z,19.09
2023-07-09T02:22:05.643Z,19.17
2023-07-09T02:23:05.640Z,19.27
2023-07-09T02:24:05.636Z,19.32
2023-07-09T02:25:05.618Z,19.26
2023-07-09T02:26:05.831Z,19.31
2023-07-09T02:27:05.590Z,19.19
2023-07-09T02:28:05.586Z,19.07
2023-07-09T02:29:05.566Z,19.08
2023-07-09T02:30:05.590Z,19.08
2023-07-09T02:31:05.564Z,19.09
2023-07-09T02:32:05.526Z,19.13
2023-07-09T02:33:05.571Z,18.97
2023-07-09T02:34:05.502Z,18.94
2023-07-09T02:35:05.524Z,18.88
2023-07-09T02:36:05.733Z,18.94
2023-07-09T02:37:05.475Z,18.83
2023-07-09T02:38:05.467Z,18.89
2023-07-09T02:39:05.499Z,18.93
2023-07-09T02:40:05.464Z,18.85
2023-07-09T02:41:05.436Z,18.82
2023-07-09T02:42:05.415Z,18.74
2023-07-09T02:43:05.483Z,18.74
2023-07-09T02:44:05.396Z,18.79
2023-07-09T02:45:05.418Z,18.75
2023-07-09T02:46:05.454Z,18.76
2023-07-09T02:47:05.385Z,18.78
2023-07-09T02:48:05.391Z,18.86
2023-07-09T02:49:05.348Z,18.98
2023-07-09T02:50:05.346Z,18.98
2023-07-09T02:51:05.333Z,18.96
2023-07-09T02:52:05.310Z,18.89
2023-07-09T02:53:05.334Z,18.91
2023-07-09T02:54:05.296Z,18.94
2023-07-09T02:55:05.325Z,18.97
2023-07-09T02:56:05.595Z,18.96
2023-07-09T02:57:05.265Z,18.96
2023-07-09T02:58:05.240Z,19.01
2023-07-09T02:59:05.267Z,18.91
2023-07-09T03:00:05.259Z,18.91
2023-07-09T03:01:05.226Z,18.81
2023-07-09T03:02:05.268Z,18.94
2023-07-09T03:03:05.282Z,18.76
2023-07-09T03:04:05.268Z,18.81
2023-07-09T03:05:05.215Z,18.79
2023-07-09T03:06:05.537Z,18.71
2023-07-09T03:07:05.168Z,18.61
2023-07-09T03:08:05.135Z,18.74
2023-07-09T03:09:05.147Z,18.68
2023-07-09T03:10:05.142Z,18.64
2023-07-09T03:11:05.143Z,18.57
2023-07-09T03:12:05.111Z,18.41
2023-07-09T03:13:05.125Z,18.42
2023-07-09T03:14:05.106Z,18.42
2023-07-09T03:15:05.067Z,18.28
2023-07-09T03:16:05.308Z,18.38
2023-07-09T03:17:05.132Z,18.41
2023-07-09T03:18:05.102Z,18.34
2023-07-09T03:19:05.044Z,18.36
2023-07-09T03:20:05.145Z,18.31
2023-07-09T03:21:05.010Z,18.28
2023-07-09T03:22:04.990Z,18.24
2023-07-09T03:23:05.020Z,18.26
2023-07-09T03:24:04.971Z,18.27
2023-07-09T03:25:04.997Z,18.21
2023-07-09T03:26:05.401Z,18.33
2023-07-09T03:27:04.999Z,18.28
2023-07-09T03:28:04.980Z,18.42
2023-07-09T03:29:04.927Z,18.36
2023-07-09T03:30:04.939Z,18.38
2023-07-09T03:31:04.896Z,18.34
2023-07-09T03:32:04.951Z,18.28
2023-07-09T03:33:04.920Z,18.27
2023-07-09T03:34:04.906Z,18.23
2023-07-09T03:35:04.875Z,18.20
2023-07-09T03:36:05.219Z,18.28
2023-07-09T03:37:04.834Z,18.27
2023-07-09T03:38:04.833Z,18.34
2023-07-09T03:39:04.811Z,18.31
2023-07-09T03:40:04.817Z,18.36
2023-07-09T03:41:04.790Z,18.30
2023-07-09T03:42:04.778Z,18.27
2023-07-09T03:43:04.811Z,18.34
2023-07-09T03:44:04.757Z,18.26
2023-07-09T03:45:04.781Z,18.28
2023-07-09T03:46:05.019Z,18.31
2023-07-09T03:47:04.828Z,18.30
2023-07-09T03:48:04.770Z,18.30
2023-07-09T03:49:04.714Z,18.38
2023-07-09T03:50:04.699Z,18.28
2023-07-09T03:51:04.709Z,18.38
2023-07-09T03:52:04.664Z,18.43
2023-07-09T03:53:04.669Z,18.38
2023-07-09T03:54:04.652Z,18.45
2023-07-09T03:55:04.636Z,18.43
2023-07-09T03:56:05.068Z,18.45
2023-07-09T03:57:04.621Z,18.42
2023-07-09T03:58:04.600Z,18.51
2023-07-09T03:59:04.614Z,18.49
2023-07-09T04:00:04.587Z,18.39
2023-07-09T04:01:04.624Z,18.45
2023-07-09T04:02:04.558Z,18.38
2023-07-09T04:03:04.569Z,18.43
2023-07-09T04:04:04.584Z,18.45
2023-07-09T04:05:04.529Z,18.45
2023-07-09T04:06:04.753Z,18.42
2023-07-09T04:07:04.518Z,18.58
2023-07-09T04:08:04.536Z,18.57
2023-07-09T04:09:04.519Z,18.58
2023-07-09T04:10:04.476Z,18.64
2023-07-09T04:11:04.513Z,18.71
2023-07-09T04:12:04.454Z,18.67
2023-07-09T04:13:04.450Z,18.60
2023-07-09T04:14:04.491Z,18.68
2023-07-09T04:15:04.485Z,18.68
2023-07-09T04:16:04.765Z,18.67
2023-07-09T04:17:04.401Z,18.64
2023-07-09T04:18:04.535Z,18.67
2023-07-09T04:19:04.383Z,18.63
2023-07-09T04:20:04.392Z,18.74
2023-07-09T04:21:04.364Z,18.81
2023-07-09T04:22:04.337Z,18.83
2023-07-09T04:23:04.335Z,18.91
2023-07-09T04:24:04.320Z,19.00
2023-07-09T04:25:04.342Z,18.96
2023-07-09T04:26:04.615Z,19.08
2023-07-09T04:27:04.366Z,19.08
2023-07-09T04:28:04.272Z,19.23
2023-07-09T04:29:04.268Z,19.27
2023-07-09T04:30:04.256Z,19.30
2023-07-09T04:31:04.321Z,19.35
2023-07-09T04:32:04.280Z,19.35
2023-07-09T04:33:04.285Z,19.41
2023-07-09T04:34:04.203Z,19.41
2023-07-09T04:35:04.199Z,19.47
2023-07-09T04:36:04.557Z,19.41
2023-07-09T04:37:04.174Z,19.45
2023-07-09T04:38:04.193Z,19.45
2023-07-09T04:39:04.176Z,19.47
2023-07-09T04:40:04.148Z,19.53
2023-07-09T04:41:04.137Z,19.54
2023-07-09T04:42:04.121Z,19.62
2023-07-09T04:43:04.138Z,19.63
2023-07-09T04:44:04.101Z,19.63
2023-07-09T04:45:04.096Z,19.63
2023-07-09T04:46:04.360Z,19.67
2023-07-09T04:47:04.093Z,19.70
2023-07-09T04:48:04.089Z,19.71
2023-07-09T04:49:04.045Z,19.78
2023-07-09T04:50:04.043Z,19.79
2023-07-09T04:51:04.060Z,19.71
2023-07-09T04:52:04.018Z,19.71
2023-07-09T04:53:04.004Z,19.77
2023-07-09T04:54:03.995Z,19.78
2023-07-09T04:55:03.983Z,19.74
2023-07-09T04:56:04.528Z,19.81
2023-07-09T04:57:03.959Z,19.89
2023-07-09T04:58:03.960Z,19.86
2023-07-09T04:59:03.940Z,19.89
2023-07-09T05:00:03.935Z,19.96
2023-07-09T05:01:03.950Z,20.04
2023-07-09T05:02:03.930Z,20.04
2023-07-09T05:03:03.976Z,20.04
2023-07-09T05:04:04.060Z,20.15
2023-07-09T05:05:03.880Z,20.18
2023-07-09T05:06:04.140Z,20.22
2023-07-09T05:07:03.866Z,20.12
2023-07-09T05:08:03.857Z,20.15
2023-07-09T05:09:03.848Z,20.22
2023-07-09T05:10:03.829Z,20.23
2023-07-09T05:11:03.837Z,20.26
2023-07-09T05:12:03.797Z,20.30
2023-07-09T05:13:03.799Z,20.34
2023-07-09T05:14:03.844Z,20.36
2023-07-09T05:15:03.773Z,20.34
2023-07-09T05:16:03.996Z,20.39
2023-07-09T05:17:03.774Z,20.36
2023-07-09T05:18:03.835Z,20.36
2023-07-09T05:19:03.768Z,20.41
2023-07-09T05:20:03.718Z,20.41
2023-07-09T05:21:03.740Z,20.41
2023-07-09T05:22:03.752Z,20.49
2023-07-09T05:23:03.677Z,20.53
2023-07-09T05:24:03.679Z,20.58
2023-07-09T05:25:03.673Z,20.56
2023-07-09T05:26:04.111Z,20.52
2023-07-09T05:27:03.652Z,20.64
2023-07-09T05:28:03.625Z,20.70
2023-07-09T05:29:03.617Z,20.75
2023-07-09T05:30:03.610Z,20.80
2023-07-09T05:31:03.609Z,20.79
2023-07-09T05:32:03.627Z,20.83
2023-07-09T05:33:03.642Z,20.82
2023-07-09T05:34:03.580Z,20.88
2023-07-09T05:35:03.622Z,20.93
2023-07-09T05:36:04.125Z,20.98
2023-07-09T05:37:03.554Z,21.03
2023-07-09T05:38:03.524Z,20.98
2023-07-09T05:39:03.524Z,21.10
2023-07-09T05:40:03.531Z,21.16
2023-07-09T05:41:03.483Z,21.16
2023-07-09T05:42:03.486Z,21.19
2023-07-09T05:43:03.468Z,21.25
2023-07-09T05:44:03.470Z,21.22
2023-07-09T05:45:03.452Z,21.23
2023-07-09T05:46:03.852Z,21.30
2023-07-09T05:47:03.488Z,21.30
2023-07-09T05:48:03.462Z,21.38
2023-07-09T05:49:03.393Z,21.38
2023-07-09T05:50:03.391Z,21.41
2023-07-09T05:51:03.413Z,21.43
2023-07-09T05:52:03.363Z,21.44
2023-07-09T05:53:03.365Z,21.44
2023-07-09T05:54:03.357Z,21.56
2023-07-09T05:55:03.333Z,21.60
2023-07-09T05:56:03.609Z,21.53
2023-07-09T05:57:03.310Z,21.63
2023-07-09T05:58:03.314Z,21.75
2023-07-09T05:59:03.288Z,21.75
2023-07-09T06:00:03.314Z,21.73
2023-07-09T06:01:03.319Z,21.81
2023-07-09T06:02:03.307Z,21.80
2023-07-09T06:03:03.387Z,21.91
2023-07-09T06:04:03.352Z,21.90
2023-07-09T06:05:03.228Z,21.91
2023-07-09T06:06:03.552Z,21.96
2023-07-09T06:07:03.227Z,21.94
2023-07-09T06:08:03.196Z,22.01
2023-07-09T06:09:03.180Z,22.09
2023-07-09T06:10:03.173Z,22.11
2023-07-09T06:11:03.226Z,22.16
2023-07-09T06:12:03.163Z,22.12
2023-07-09T06:13:03.149Z,22.18
2023-07-09T06:14:03.205Z,22.21
2023-07-09T06:15:03.126Z,22.25
2023-07-09T06:16:03.488Z,22.28
2023-07-09T06:17:03.410Z,22.25
2023-07-09T06:18:03.128Z,22.30
2023-07-09T06:19:03.089Z,22.34
2023-07-09T06:20:03.076Z,22.37
2023-07-09T06:21:03.084Z,22.51
2023-07-09T06:22:03.045Z,22.52
2023-07-09T06:23:03.054Z,22.58
2023-07-09T06:24:03.031Z,22.64
2023-07-09T06:25:03.020Z,22.61
2023-07-09T06:26:03.379Z,22.74
2023-07-09T06:27:03.030Z,22.85
2023-07-09T06:28:02.988Z,22.91
2023-07-09T06:29:02.979Z,22.88
2023-07-09T06:30:02.962Z,22.89
2023-07-09T06:31:03.016Z,22.98
2023-07-09T06:32:03.001Z,23.06
2023-07-09T06:33:02.948Z,23.04
2023-07-09T06:34:02.932Z,23.10
2023-07-09T06:35:02.920Z,23.15
2023-07-09T06:36:03.301Z,23.15
2023-07-09T06:37:02.882Z,23.18
2023-07-09T06:38:02.913Z,23.31
2023-07-09T06:39:02.902Z,23.23
2023-07-09T06:40:02.852Z,23.36
2023-07-09T06:41:02.850Z,23.34
2023-07-09T06:42:02.870Z,23.34
2023-07-09T06:43:02.816Z,23.44
2023-07-09T06:44:02.813Z,23.48
2023-07-09T06:45:02.808Z,23.60
2023-07-09T06:46:03.196Z,23.52
2023-07-09T06:47:02.835Z,23.60
2023-07-09T06:48:02.858Z,23.71
2023-07-09T06:49:02.763Z,23.74
2023-07-09T06:50:02.769Z,23.76
2023-07-09T06:51:02.744Z,23.73
2023-07-09T06:52:02.748Z,23.84
2023-07-09T06:53:02.712Z,23.92
2023-07-09T06:54:02.706Z,24.01
2023-07-09T06:55:02.724Z,23.98
2023-07-09T06:56:03.197Z,24.01
2023-07-09T06:57:02.705Z,24.07
2023-07-09T06:58:02.668Z,24.15
2023-07-09T06:59:02.658Z,24.19
2023-07-09T07:00:02.639Z,24.31
2023-07-09T07:01:02.646Z,24.29
2023-07-09T07:02:02.643Z,24.40
2023-07-09T07:03:02.716Z,24.44
2023-07-09T07:04:02.641Z,24.47
2023-07-09T07:05:02.622Z,24.56
2023-07-09T07:06:02.847Z,24.51
2023-07-09T07:07:02.564Z,24.60
2023-07-09T07:08:02.589Z,24.62
2023-07-09T07:09:02.542Z,24.55
2023-07-09T07:10:02.561Z,24.62
2023-07-09T07:11:02.585Z,24.55
2023-07-09T07:12:02.506Z,24.55
2023-07-09T07:13:02.497Z,24.59
2023-07-09T07:14:02.556Z,24.59
2023-07-09T07:15:02.471Z,24.58
2023-07-09T07:16:02.797Z,24.74
2023-07-09T07:17:02.489Z,24.76
2023-07-09T07:18:02.517Z,24.76
2023-07-09T07:19:02.442Z,24.70
2023-07-09T07:20:02.434Z,24.76
2023-07-09T07:21:02.441Z,24.86
2023-07-09T07:22:02.401Z,24.86
2023-07-09T07:23:02.412Z,24.94
2023-07-09T07:24:02.380Z,25.09
2023-07-09T07:25:02.366Z,25.12
2023-07-09T07:26:03.073Z,25.18
2023-07-09T07:27:02.362Z,25.27
2023-07-09T07:28:02.357Z,25.34
2023-07-09T07:29:02.347Z,25.45
2023-07-09T07:30:02.366Z,25.61
2023-07-09T07:31:02.311Z,25.64
2023-07-09T07:32:02.364Z,25.67
2023-07-09T07:33:02.346Z,25.82
2023-07-09T07:34:02.284Z,25.86
2023-07-09T07:35:02.260Z,26.01
2023-07-09T07:37:02.260Z,26.10
2023-07-09T07:38:02.259Z,26.19
2023-07-09T07:39:02.227Z,26.36
2023-07-09T07:40:02.280Z,26.45
2023-07-09T07:41:02.197Z,26.60
2023-07-09T07:42:02.689Z,26.68
2023-07-09T07:43:02.240Z,26.79
2023-07-09T07:44:02.175Z,27.03
2023-07-09T07:45:02.176Z,27.19
2023-07-09T07:46:02.866Z,27.35
2023-07-09T07:47:02.158Z,27.47
2023-07-09T07:48:02.170Z,27.54
2023-07-09T07:49:02.143Z,27.57
2023-07-09T07:50:02.114Z,27.66
2023-07-09T07:51:02.105Z,27.79
2023-07-09T07:52:02.117Z,27.82
2023-07-09T07:53:02.074Z,28.05
2023-07-09T07:54:02.064Z,28.09
2023-07-09T07:55:02.066Z,28.15
2023-07-09T07:56:02.483Z,28.24
2023-07-09T07:57:02.050Z,28.12
2023-07-09T07:58:02.034Z,28.13
2023-07-09T07:59:02.026Z,28.25
2023-07-09T08:00:03.819Z,28.37
2023-07-09T08:01:02.297Z,28.53
2023-07-09T08:02:02.204Z,28.71
2023-07-09T08:03:02.041Z,28.68
2023-07-09T08:04:02.135Z,28.83
2023-07-09T08:05:02.037Z,28.84
2023-07-09T08:06:02.798Z,28.96
2023-07-09T08:07:02.041Z,29.10
2023-07-09T08:08:02.013Z,29.24
2023-07-09T08:09:01.926Z,29.39
2023-07-09T08:10:01.984Z,29.56
2023-07-09T08:11:01.879Z,29.63
2023-07-09T08:12:01.891Z,29.73
2023-07-09T08:13:01.871Z,29.92
2023-07-09T08:14:02.028Z,29.96
2023-07-09T08:15:01.888Z,30.07
2023-07-09T08:16:02.284Z,30.28
2023-07-09T08:17:01.829Z,30.32
2023-07-09T08:18:02.012Z,30.35
2023-07-09T08:19:01.848Z,30.40
2023-07-09T08:20:01.952Z,30.56
2023-07-09T08:21:01.780Z,30.71
2023-07-09T08:22:01.766Z,30.74
2023-07-09T08:23:01.751Z,30.68
2023-07-09T08:24:01.771Z,30.59
2023-07-09T08:25:01.731Z,30.55
2023-07-09T08:26:02.284Z,30.51
2023-07-09T08:27:01.718Z,30.68
2023-07-09T08:28:01.712Z,30.77
2023-07-09T08:29:01.721Z,30.89
2023-07-09T08:30:01.688Z,30.89
2023-07-09T08:31:01.962Z,31.01
2023-07-09T08:32:01.729Z,31.07
2023-07-09T08:33:01.722Z,30.90
2023-07-09T08:34:01.682Z,30.93
2023-07-09T08:36:01.625Z,30.99
2023-07-09T08:37:01.622Z,31.07
2023-07-09T08:38:01.632Z,31.10
2023-07-09T08:39:01.627Z,31.11
2023-07-09T08:40:01.610Z,31.12
2023-07-09T08:41:01.964Z,31.12
2023-07-09T08:42:03.720Z,31.10
2023-07-09T08:43:02.381Z,31.04
2023-07-09T08:44:01.612Z,31.11
2023-07-09T08:45:01.532Z,31.15
2023-07-09T08:46:01.531Z,31.33
2023-07-09T08:47:01.526Z,31.33
2023-07-09T08:48:01.579Z,31.59
2023-07-09T08:49:01.493Z,31.60
2023-07-09T08:50:01.538Z,31.61
2023-07-09T08:51:01.731Z,31.61
2023-07-09T08:52:01.467Z,31.74
2023-07-09T08:53:01.458Z,31.71
2023-07-09T08:54:01.443Z,31.79
2023-07-09T08:55:01.434Z,31.78
2023-07-09T08:56:01.525Z,31.84
2023-07-09T08:57:01.415Z,31.87
2023-07-09T08:58:01.412Z,31.81
2023-07-09T08:59:01.418Z,31.89
2023-07-09T09:00:01.416Z,31.98
2023-07-09T09:01:01.540Z,32.08
2023-07-09T09:02:01.513Z,32.17
2023-07-09T09:03:01.504Z,32.16
2023-07-09T09:04:01.473Z,32.17
2023-07-09T09:05:01.350Z,32.19
2023-07-09T09:06:01.328Z,32.20
2023-07-09T09:07:01.334Z,32.19
2023-07-09T09:08:04.616Z,32.36
2023-07-09T09:09:01.299Z,32.41
2023-07-09T09:10:01.300Z,32.35
2023-07-09T09:11:01.621Z,32.38
2023-07-09T09:12:01.311Z,32.38
2023-07-09T09:13:01.246Z,32.55
2023-07-09T09:14:01.321Z,32.45
2023-07-09T09:15:01.239Z,32.58
2023-07-09T09:16:01.249Z,32.64
2023-07-09T09:17:01.223Z,32.75
2023-07-09T09:18:01.260Z,32.73
2023-07-09T09:19:01.222Z,32.46
2023-07-09T09:20:01.169Z,32.42
2023-07-09T09:21:01.394Z,32.46
2023-07-09T09:22:02.406Z,32.50
2023-07-09T09:23:01.146Z,32.64
2023-07-09T09:24:01.138Z,32.82
2023-07-09T09:25:01.124Z,32.88
2023-07-09T09:26:13.753Z,32.95
2023-07-09T09:27:02.103Z,33.07
2023-07-09T09:28:01.097Z,33.17
2023-07-09T09:29:01.079Z,33.30
2023-07-09T09:30:01.095Z,33.32
2023-07-09T09:31:01.284Z,33.37
2023-07-09T09:32:01.097Z,33.45
2023-07-09T09:33:01.124Z,33.57
2023-07-09T09:34:01.040Z,33.58
2023-07-09T09:35:01.046Z,33.79
2023-07-09T09:36:01.043Z,33.86
2023-07-09T09:37:01.024Z,34.01
2023-07-09T09:38:00.992Z,33.81
2023-07-09T09:39:01.000Z,33.67
2023-07-09T09:41:01.099Z,33.86
2023-07-09T09:42:00.960Z,34.03
2023-07-09T09:43:00.949Z,34.11
2023-07-09T09:44:00.932Z,34.25
2023-07-09T09:45:00.928Z,34.18
2023-07-09T09:46:00.960Z,34.06
2023-07-09T09:47:01.489Z,34.20
2023-07-09T09:48:00.956Z,34.34
2023-07-09T09:49:00.882Z,34.18
2023-07-09T09:50:00.878Z,34.34
2023-07-09T09:51:01.018Z,34.41
2023-07-09T09:52:00.855Z,34.34
2023-07-09T09:53:00.844Z,34.38
2023-07-09T09:54:00.838Z,34.37
2023-07-09T09:55:00.836Z,34.34
2023-07-09T09:56:00.842Z,34.35
2023-07-09T09:57:00.824Z,34.48
2023-07-09T09:58:00.807Z,34.32
2023-07-09T09:59:00.805Z,34.32
2023-07-09T10:00:00.834Z,34.32
2023-07-09T10:01:00.972Z,34.52
2023-07-09T10:02:00.765Z,34.60
2023-07-09T10:03:00.957Z,34.38
2023-07-09T10:04:00.740Z,34.42
2023-07-09T10:05:00.746Z,34.22
2023-07-09T10:06:00.751Z,34.20
2023-07-09T10:07:00.740Z,34.37
2023-07-09T10:08:00.707Z,34.53
2023-07-09T10:09:00.695Z,34.64
2023-07-09T10:10:00.675Z,34.73
2023-07-09T10:11:00.833Z,34.66
2023-07-09T10:12:00.662Z,34.64
2023-07-09T10:13:00.653Z,34.75
2023-07-09T10:14:00.689Z,34.78
2023-07-09T10:15:00.646Z,34.63
2023-07-09T10:16:00.625Z,34.32
2023-07-09T10:17:00.640Z,34.37
2023-07-09T10:18:00.688Z,34.16
2023-07-09T10:19:00.723Z,34.19
2023-07-09T10:20:00.580Z,33.93
2023-07-09T10:21:00.669Z,33.89
2023-07-09T10:22:00.595Z,33.91
2023-07-09T10:23:00.589Z,33.79
2023-07-09T10:24:00.549Z,33.64
2023-07-09T10:25:00.558Z,33.69
2023-07-09T10:26:00.526Z,33.69
2023-07-09T10:27:00.536Z,33.64
2023-07-09T10:28:00.538Z,33.52
2023-07-09T10:29:00.504Z,33.48
2023-07-09T10:30:11.928Z,33.44
2023-07-09T10:31:01.937Z,33.35
2023-07-09T10:32:00.492Z,33.30
2023-07-09T10:33:00.477Z,33.24
2023-07-09T10:34:00.450Z,33.07
2023-07-09T10:35:00.428Z,33.01
2023-07-09T10:36:00.560Z,32.95
2023-07-09T10:37:00.433Z,32.98
2023-07-09T10:38:00.397Z,32.97
2023-07-09T10:39:00.536Z,32.98
2023-07-09T10:40:00.432Z,32.97
2023-07-09T10:41:06.520Z,33.17
2023-07-09T10:42:01.377Z,33.10
2023-07-09T10:43:00.351Z,33.30
2023-07-09T10:44:00.332Z,33.42
2023-07-09T10:45:00.375Z,33.49
2023-07-09T10:46:00.321Z,33.63
2023-07-09T10:47:00.559Z,33.91
2023-07-09T10:48:00.343Z,34.04
2023-07-09T10:49:00.299Z,34.40
2023-07-09T10:50:00.277Z,34.45
2023-07-09T10:51:00.306Z,34.85
2023-07-09T10:52:00.282Z,35.09
2023-07-09T10:53:00.282Z,35.42
2023-07-09T10:54:00.236Z,35.69
2023-07-09T10:55:00.249Z,35.77
2023-07-09T10:56:00.218Z,35.97
2023-07-09T10:57:00.250Z,36.30
2023-07-09T10:58:00.207Z,36.45
2023-07-09T10:59:00.193Z,36.61
2023-07-09T11:00:00.203Z,36.79
2023-07-09T11:01:00.180Z,37.03
2023-07-09T11:02:00.276Z,37.05
2023-07-09T11:03:00.244Z,37.12
2023-07-09T11:04:00.200Z,37.20
2023-07-09T11:05:00.142Z,37.32
2023-07-09T11:06:00.125Z,37.27
2023-07-09T11:07:00.119Z,37.05
2023-07-09T11:08:00.143Z,37.22
2023-07-09T11:09:00.097Z,37.22
2023-07-09T11:10:00.204Z,37.31
2023-07-09T11:11:00.101Z,37.35
2023-07-09T11:12:00.067Z,37.45
2023-07-09T11:13:00.081Z,37.47
2023-07-09T11:14:00.050Z,37.41
2023-07-09T11:15:00.040Z,37.34
2023-07-09T11:16:00.110Z,37.17
2023-07-09T11:17:00.028Z,37.19
2023-07-09T11:18:00.026Z,37.30
2023-07-09T11:19:00.008Z,37.44
2023-07-09T11:20:00.006Z,37.65
2023-07-09T11:20:59.981Z,37.88
2023-07-09T11:22:00.004Z,37.99
2023-07-09T11:22:59.991Z,37.99
2023-07-09T11:23:59.950Z,37.80
2023-07-09T11:24:59.961Z,37.99
2023-07-09T11:25:59.941Z,38.14
2023-07-09T11:26:59.938Z,38.28
2023-07-09T11:27:59.963Z,38.28
2023-07-09T11:28:59.905Z,37.74
2023-07-09T11:29:59.901Z,37.32
2023-07-09T11:30:59.888Z,37.47
2023-07-09T11:31:59.962Z,37.69
2023-07-09T11:33:13.759Z,37.85
2023-07-09T11:34:00.857Z,38.01
2023-07-09T11:34:59.840Z,37.98
2023-07-09T11:35:59.855Z,38.06
2023-07-09T11:36:59.885Z,37.96
2023-07-09T11:37:59.827Z,37.89
2023-07-09T11:38:59.821Z,37.54
2023-07-09T11:39:59.811Z,37.51
2023-07-09T11:40:59.809Z,37.51
2023-07-09T11:41:59.797Z,37.55
2023-07-09T11:42:59.789Z,37.44
2023-07-09T11:43:59.808Z,37.20
2023-07-09T11:44:59.739Z,37.19
2023-07-09T11:45:59.887Z,37.15
2023-07-09T11:46:59.802Z,36.78
2023-07-09T11:47:59.794Z,36.74
2023-07-09T11:48:59.715Z,36.60
2023-07-09T11:49:59.704Z,36.61
2023-07-09T11:50:59.696Z,36.52
2023-07-09T11:51:59.695Z,36.54
2023-07-09T11:52:59.679Z,36.59
2023-07-09T11:53:59.685Z,36.49
2023-07-09T11:54:59.652Z,36.48
2023-07-09T11:55:59.684Z,36.29
2023-07-09T11:56:59.685Z,36.17
2023-07-09T11:57:59.620Z,35.84
2023-07-09T11:58:59.655Z,35.73
2023-07-09T11:59:59.614Z,35.65
2023-07-09T12:00:59.676Z,35.56
2023-07-09T12:01:59.667Z,35.46
2023-07-09T12:02:59.622Z,35.34
2023-07-09T12:03:59.654Z,35.05
2023-07-09T12:04:59.553Z,35.07
2023-07-09T12:05:59.540Z,34.97
2023-07-09T12:06:59.536Z,34.94
2023-07-09T12:07:59.529Z,34.94
2023-07-09T12:08:59.584Z,34.94
2023-07-09T12:09:59.502Z,34.75
2023-07-09T12:10:59.505Z,34.40
2023-07-09T12:11:59.500Z,34.38
2023-07-09T12:12:59.476Z,34.45
2023-07-09T12:13:59.532Z,34.50
2023-07-09T12:14:59.487Z,34.50
2023-07-09T12:15:59.497Z,34.35
2023-07-09T12:16:59.428Z,34.44
2023-07-09T12:17:59.489Z,34.52
2023-07-09T12:18:59.445Z,34.41
2023-07-09T12:19:59.418Z,34.37
2023-07-09T12:20:59.414Z,34.32
2023-07-09T12:21:59.399Z,34.20
2023-07-09T12:22:59.381Z,34.08
2023-07-09T12:23:59.358Z,34.08
2023-07-09T12:24:59.346Z,34.10
2023-07-09T12:25:59.340Z,34.08
2023-07-09T12:26:59.370Z,34.04
2023-07-09T12:27:59.315Z,34.11
2023-07-09T12:28:59.308Z,34.25
2023-07-09T12:29:59.330Z,34.30
2023-07-09T12:30:59.330Z,34.35
2023-07-09T12:31:59.347Z,34.44
2023-07-09T12:32:59.305Z,34.41
2023-07-09T12:33:59.589Z,34.37
2023-07-09T12:34:59.253Z,34.41
2023-07-09T12:35:59.238Z,34.45
2023-07-09T12:36:59.252Z,34.52
2023-07-09T12:37:59.242Z,34.42
2023-07-09T12:38:59.211Z,34.29
2023-07-09T12:39:59.194Z,34.26
2023-07-09T12:40:59.213Z,34.34
2023-07-09T12:41:59.208Z,34.28
2023-07-09T12:42:59.174Z,34.13
2023-07-09T12:43:59.149Z,34.15
2023-07-09T12:44:59.185Z,34.03
2023-07-09T12:45:59.199Z,33.92
2023-07-09T12:46:59.159Z,34.00
2023-07-09T12:47:59.196Z,33.98
2023-07-09T12:48:59.124Z,33.97
2023-07-09T12:49:59.090Z,33.97
2023-07-09T12:50:59.093Z,33.97
2023-07-09T12:51:59.126Z,34.03
2023-07-09T12:52:59.088Z,34.10
2023-07-09T12:53:59.077Z,34.06
2023-07-09T12:54:59.088Z,34.00